createdAt,value
2024-01-22T00:01:22.950Z,33.02
2024-01-22T00:04:10.157Z,32.79
2024-01-22T00:06:57.071Z,32.21
2024-01-22T00:09:43.794Z,33.62
2024-01-22T00:12:32.390Z,34.34
2024-01-22T00:15:19.532Z,33.85
2024-01-22T00:18:06.786Z,33.66
2024-01-22T00:20:53.626Z,33.39
2024-01-22T00:23:40.833Z,33.71
2024-01-22T00:26:27.415Z,33.50
2024-01-22T00:29:15.688Z,33.93
2024-01-22T00:32:02.404Z,34.85
2024-01-22T00:34:49.405Z,33.58
2024-01-22T00:37:36.167Z,33.91
2024-01-22T00:40:23.046Z,33.94
2024-01-22T00:43:09.836Z,32.54
2024-01-22T00:45:58.579Z,32.35
2024-01-22T00:48:45.479Z,32.70
2024-01-22T00:51:32.802Z,33.60
2024-01-22T00:54:20.671Z,33.49
2024-01-22T00:57:07.235Z,34.34
2024-01-22T01:02:41.934Z,32.95
2024-01-22T01:05:28.656Z,33.25
2024-01-22T01:08:15.525Z,34.06
2024-01-22T01:11:03.076Z,34.17
2024-01-22T01:13:49.839Z,34.48
2024-01-22T01:16:36.743Z,33.61
2024-01-22T01:19:25.083Z,33.54
2024-01-22T01:22:11.979Z,33.05
2024-01-22T01:24:58.670Z,33.44
2024-01-22T01:27:45.630Z,34.02
2024-01-22T01:30:32.771Z,33.41
2024-01-22T01:33:19.711Z,32.22
2024-01-22T01:36:08.243Z,32.73
2024-01-22T01:38:55.100Z,32.77
2024-01-22T01:41:41.750Z,33.26
2024-01-22T01:44:49.627Z,33.39
2024-01-22T01:47:36.660Z,33.03
2024-01-22T01:50:24.427Z,34.03
2024-01-22T01:53:12.985Z,33.30
2024-01-22T01:56:00.139Z,34.02
2024-01-22T01:58:47.267Z,33.14
2024-01-22T02:01:34.062Z,34.36
2024-01-22T02:04:20.772Z,35.04
2024-01-22T02:07:07.645Z,34.06
2024-01-22T02:09:56.176Z,34.35
2024-01-22T02:12:42.954Z,33.06
2024-01-22T02:15:29.713Z,32.82
2024-01-22T02:18:16.887Z,33.22
2024-01-22T02:21:03.675Z,33.72
2024-01-22T02:23:51.943Z,34.18
2024-01-22T02:26:38.590Z,33.65
2024-01-22T02:29:25.658Z,33.36
2024-01-22T02:32:12.387Z,32.58
2024-01-22T02:34:59.182Z,33.42
2024-01-22T02:37:46.514Z,33.60
2024-01-22T02:40:34.543Z,34.22
2024-01-22T02:43:21.313Z,33.04
2024-01-22T02:46:08.247Z,34.28
2024-01-22T02:48:55.414Z,34.94
2024-01-22T02:51:44.423Z,33.74
2024-01-22T02:54:30.946Z,33.52
2024-01-22T02:57:19.370Z,34.50
2024-01-22T03:00:08.761Z,35.71
2024-01-22T03:02:55.555Z,34.19
2024-01-22T03:05:43.008Z,32.88
2024-01-22T03:08:30.019Z,33.86
2024-01-22T03:11:16.970Z,35.14
2024-01-22T03:14:05.259Z,35.36
2024-01-22T03:16:52.029Z,35.32
2024-01-22T03:19:39.148Z,33.74
2024-01-22T03:22:25.931Z,33.69
2024-01-22T03:25:15.415Z,33.63
2024-01-22T03:28:01.998Z,35.14
2024-01-22T03:30:50.368Z,34.84
2024-01-22T03:33:37.126Z,34.40
2024-01-22T03:36:25.232Z,34.74
2024-01-22T03:39:13.862Z,34.57
2024-01-22T03:42:00.750Z,34.31
2024-01-22T03:44:47.953Z,34.16
2024-01-22T03:47:35.979Z,34.83
2024-01-22T03:50:22.920Z,35.97
2024-01-22T03:53:09.642Z,35.24
2024-01-22T03:55:56.563Z,34.37
2024-01-22T03:58:43.439Z,34.62
2024-01-22T04:01:30.375Z,34.50
2024-01-22T04:04:18.685Z,34.86
2024-01-22T04:07:05.704Z,34.50
2024-01-22T04:09:52.842Z,35.47
2024-01-22T04:12:40.488Z,36.16
2024-01-22T04:15:27.484Z,34.99
2024-01-22T04:18:14.623Z,36.82
2024-01-22T04:21:03.060Z,37.72
2024-01-22T04:23:49.613Z,38.33
2024-01-22T04:26:36.460Z,37.42
2024-01-22T04:29:23.330Z,37.34
2024-01-22T04:32:10.216Z,37.32
2024-01-22T04:34:57.039Z,38.26
2024-01-22T04:37:45.496Z,38.59
2024-01-22T04:40:32.473Z,37.92
2024-01-22T04:43:23.163Z,38.66
2024-01-22T04:46:10.348Z,38.59
2024-01-22T04:48:57.155Z,38.90
2024-01-22T04:51:44.857Z,39.31
2024-01-22T04:54:32.899Z,39.02
2024-01-22T04:57:20.067Z,36.66
2024-01-22T05:00:08.632Z,37.85
2024-01-22T05:02:57.212Z,38.37
2024-01-22T05:05:45.219Z,38.15
2024-01-22T05:08:32.028Z,35.62
2024-01-22T05:11:20.402Z,37.02
2024-01-22T05:14:06.977Z,37.23
2024-01-22T05:16:53.871Z,37.08
2024-01-22T05:19:40.732Z,36.09
2024-01-22T05:22:27.513Z,35.74
2024-01-22T05:25:14.519Z,35.39
2024-01-22T05:28:02.976Z,36.52
2024-01-22T05:30:49.575Z,35.69
2024-01-22T05:33:36.557Z,35.55
2024-01-22T05:36:23.446Z,35.66
2024-01-22T05:39:10.226Z,35.89
2024-01-22T05:41:57.127Z,34.51
2024-01-22T05:44:45.465Z,36.32
2024-01-22T05:47:32.973Z,36.83
2024-01-22T05:50:19.879Z,37.11
2024-01-22T05:53:07.061Z,36.50
2024-01-22T05:55:53.796Z,36.40
2024-01-22T05:58:40.456Z,35.29
2024-01-22T06:01:31.135Z,34.51
2024-01-22T06:04:17.747Z,34.83
2024-01-22T06:07:06.162Z,36.85
2024-01-22T06:09:59.146Z,35.60
2024-01-22T06:12:55.008Z,34.79
2024-01-22T06:15:42.675Z,34.61
2024-01-22T06:18:31.145Z,35.46
2024-01-22T06:21:18.030Z,36.60
2024-01-22T06:24:05.648Z,36.73
2024-01-22T06:26:52.473Z,36.62
2024-01-22T06:29:39.712Z,35.64
2024-01-22T06:32:28.588Z,35.32
2024-01-22T06:35:18.147Z,36.09
2024-01-22T06:38:06.838Z,35.18
2024-01-22T06:40:53.639Z,36.00
2024-01-22T06:43:40.863Z,35.98
2024-01-22T06:46:27.554Z,34.95
2024-01-22T06:49:14.534Z,33.49
2024-01-22T06:52:02.832Z,34.50
2024-01-22T06:54:49.405Z,35.89
2024-01-22T06:57:36.321Z,35.28
2024-01-22T07:00:23.914Z,35.36
2024-01-22T07:03:10.673Z,35.21
2024-01-22T07:05:57.670Z,34.69
2024-01-22T07:08:45.658Z,35.35
2024-01-22T07:11:32.696Z,35.44
2024-01-22T07:14:19.381Z,36.48
2024-01-22T07:17:06.595Z,36.13
2024-01-22T07:19:54.317Z,35.49
2024-01-22T07:22:43.605Z,35.54
2024-01-22T07:25:35.685Z,34.13
2024-01-22T07:28:22.414Z,35.02
2024-01-22T07:31:09.150Z,34.36
2024-01-22T07:33:56.620Z,35.71
2024-01-22T07:36:43.828Z,35.27
2024-01-22T07:39:31.024Z,34.82
2024-01-22T07:42:19.216Z,35.64
2024-01-22T07:45:07.356Z,36.28
2024-01-22T07:47:54.552Z,34.71
2024-01-22T07:50:41.379Z,34.66
2024-01-22T07:53:28.653Z,34.84
2024-01-22T07:56:15.602Z,36.18
2024-01-22T07:59:05.021Z,35.33
2024-01-22T08:01:51.739Z,35.69
2024-01-22T08:04:39.045Z,33.76
2024-01-22T08:07:25.793Z,35.21
2024-01-22T08:10:13.979Z,34.25
2024-01-22T08:13:00.682Z,35.39
2024-01-22T08:15:49.475Z,38.35
2024-01-22T08:18:36.489Z,39.41
2024-01-22T08:21:23.177Z,39.84
2024-01-22T08:24:10.159Z,41.65
2024-01-22T08:26:57.368Z,42.46
2024-01-22T08:29:44.121Z,42.58
2024-01-22T08:32:32.549Z,42.63
2024-01-22T08:35:20.614Z,41.73
2024-01-22T08:38:07.362Z,43.07
2024-01-22T08:40:54.186Z,42.36
2024-01-22T08:43:41.413Z,42.96
2024-01-22T08:46:28.390Z,42.22
2024-01-22T08:49:16.594Z,41.17
2024-01-22T08:52:04.607Z,42.05
2024-01-22T08:54:51.475Z,44.61
2024-01-22T08:57:38.553Z,42.59
2024-01-22T09:00:25.962Z,44.19
2024-01-22T09:03:12.831Z,43.82
2024-01-22T09:06:01.505Z,46.40
2024-01-22T09:08:47.984Z,45.39
2024-01-22T09:11:34.825Z,44.08
2024-01-22T09:14:21.887Z,44.91
2024-01-22T09:17:08.698Z,45.09
2024-01-22T09:19:55.536Z,42.60
2024-01-22T09:22:43.975Z,44.02
2024-01-22T09:25:30.655Z,43.42
2024-01-22T09:28:17.407Z,45.93
2024-01-22T09:31:04.630Z,45.32
2024-01-22T09:33:54.802Z,44.03
2024-01-22T09:36:41.532Z,45.89
2024-01-22T09:39:29.740Z,46.87
2024-01-22T09:42:18.889Z,43.59
2024-01-22T09:45:06.979Z,45.05
2024-01-22T09:47:53.946Z,46.63
2024-01-22T09:50:40.830Z,44.96
2024-01-22T09:53:29.700Z,42.92
2024-01-22T09:56:21.184Z,45.60
2024-01-22T09:59:18.445Z,44.69
2024-01-22T10:02:06.081Z,43.62
2024-01-22T10:04:54.371Z,41.39
2024-01-22T10:07:41.258Z,44.16
2024-01-22T10:10:28.434Z,44.74
2024-01-22T10:13:18.524Z,45.20
2024-01-22T10:16:12.331Z,42.88
2024-01-22T10:19:00.792Z,44.01
2024-01-22T10:21:48.003Z,43.32
2024-01-22T10:24:34.629Z,42.67
2024-01-22T10:27:21.515Z,43.65
2024-01-22T10:30:15.450Z,44.30
2024-01-22T10:33:11.476Z,42.72
2024-01-22T10:35:58.943Z,45.18
2024-01-22T10:38:46.748Z,40.97
2024-01-22T10:41:36.455Z,41.16
2024-01-22T10:44:24.937Z,41.41
2024-01-22T10:47:13.332Z,41.68
2024-01-22T10:50:04.828Z,40.33
2024-01-22T10:52:53.373Z,41.12
2024-01-22T10:55:40.904Z,42.34
2024-01-22T10:58:29.723Z,40.01
2024-01-22T11:01:18.092Z,39.94
2024-01-22T11:04:09.963Z,40.44
2024-01-22T11:07:02.368Z,41.46
2024-01-22T11:09:53.983Z,39.86
2024-01-22T11:12:44.778Z,39.87
2024-01-22T11:15:31.637Z,39.67
2024-01-22T11:18:18.942Z,40.01
2024-01-22T11:21:22.057Z,39.38
2024-01-22T11:24:13.894Z,38.62
2024-01-22T11:27:06.836Z,40.17
2024-01-22T11:29:53.622Z,40.07
2024-01-22T11:32:43.824Z,39.82
2024-01-22T11:35:37.610Z,39.61
2024-01-22T11:38:53.365Z,39.54
2024-01-22T11:41:42.449Z,40.22
2024-01-22T11:44:29.236Z,40.16
2024-01-22T11:47:16.591Z,40.40
2024-01-22T11:50:06.473Z,40.82
2024-01-22T11:53:01.218Z,41.20
2024-01-22T11:56:02.683Z,37.26
2024-01-22T11:58:49.582Z,38.13
2024-01-22T12:01:36.558Z,36.75
2024-01-22T12:04:23.796Z,37.97
2024-01-22T12:07:10.729Z,37.62
2024-01-22T12:09:57.244Z,36.76
2024-01-22T12:12:50.762Z,37.68
2024-01-22T12:15:37.334Z,37.08
2024-01-22T12:18:25.278Z,36.08
2024-01-22T12:21:13.226Z,38.72
2024-01-22T12:23:59.754Z,37.59
2024-01-22T12:26:46.795Z,38.77
2024-01-22T12:29:34.967Z,36.38
2024-01-22T12:32:21.899Z,35.63
2024-01-22T12:35:09.920Z,38.26
2024-01-22T12:37:56.988Z,36.67
2024-01-22T12:40:44.015Z,37.55
2024-01-22T12:43:31.000Z,37.11
2024-01-22T12:46:21.134Z,36.04
2024-01-22T12:49:08.744Z,37.19
2024-01-22T12:51:55.489Z,36.24
2024-01-22T12:54:42.443Z,35.84
2024-01-22T12:57:29.280Z,36.22
2024-01-22T13:00:17.270Z,34.61
2024-01-22T13:03:05.728Z,35.74
2024-01-22T13:05:52.866Z,35.95
2024-01-22T13:08:39.774Z,36.29
2024-01-22T13:11:26.660Z,35.78
2024-01-22T13:14:13.497Z,36.05
2024-01-22T13:17:02.734Z,36.18
2024-01-22T13:19:50.833Z,35.90
2024-01-22T13:22:37.743Z,35.92
2024-01-22T13:25:24.605Z,35.91
2024-01-22T13:28:11.638Z,34.82
2024-01-22T13:30:58.429Z,36.32
2024-01-22T13:33:50.171Z,35.07
2024-01-22T13:36:40.396Z,35.24
2024-01-22T13:39:27.987Z,36.23
2024-01-22T13:42:15.008Z,37.36
2024-01-22T13:45:01.848Z,36.80
2024-01-22T13:47:48.959Z,36.39
2024-01-22T13:50:35.684Z,36.22
2024-01-22T13:53:23.872Z,36.34
2024-01-22T13:56:10.708Z,36.08
2024-01-22T13:58:58.068Z,38.00
2024-01-22T14:01:44.756Z,36.86
2024-01-22T14:04:32.701Z,36.82
2024-01-22T14:07:19.535Z,35.29
2024-01-22T14:10:08.987Z,35.22
2024-01-22T14:12:55.728Z,34.95
2024-01-22T14:15:42.668Z,35.32
2024-01-22T14:18:29.731Z,34.86
2024-01-22T14:21:16.737Z,35.58
2024-01-22T14:24:03.702Z,35.19
2024-01-22T14:26:52.228Z,35.15
2024-01-22T14:29:39.442Z,34.69
2024-01-22T14:32:28.610Z,34.59
2024-01-22T14:35:15.285Z,34.30
2024-01-22T14:38:02.250Z,34.39
2024-01-22T14:40:49.128Z,35.29
2024-01-22T14:43:37.350Z,34.48
2024-01-22T14:46:27.459Z,36.23
2024-01-22T14:49:17.440Z,36.80
2024-01-22T14:52:05.137Z,35.25
2024-01-22T14:54:52.245Z,36.32
2024-01-22T14:57:40.134Z,35.70
2024-01-22T15:00:28.507Z,36.43
2024-01-22T15:03:15.566Z,36.28
2024-01-22T15:06:02.437Z,36.44
2024-01-22T15:08:50.583Z,36.78
2024-01-22T15:11:39.737Z,36.13
2024-01-22T15:14:28.740Z,35.08
2024-01-22T15:17:16.967Z,36.46
2024-01-22T15:20:04.061Z,35.03
2024-01-22T15:22:50.717Z,36.91
2024-01-22T15:25:37.585Z,38.46
2024-01-22T15:28:24.384Z,37.25
2024-01-22T15:31:12.870Z,37.95
2024-01-22T15:34:02.771Z,38.33
2024-01-22T15:36:49.667Z,38.10
2024-01-22T15:39:37.204Z,38.59
2024-01-22T15:42:24.154Z,38.13
2024-01-22T15:45:11.934Z,37.90
2024-01-22T15:47:58.577Z,38.95
2024-01-22T15:50:46.829Z,42.65
2024-01-22T15:53:34.758Z,42.93
2024-01-22T15:56:21.758Z,44.10
2024-01-22T15:59:09.309Z,42.21
2024-01-22T16:01:57.116Z,42.33
2024-01-22T16:04:44.768Z,41.35
2024-01-22T16:07:33.124Z,38.51
2024-01-22T16:10:19.853Z,41.31
2024-01-22T16:13:07.024Z,42.46
2024-01-22T16:15:55.441Z,39.78
2024-01-22T16:18:43.176Z,39.19
2024-01-22T16:21:30.287Z,41.29
2024-01-22T16:24:18.609Z,43.25
2024-01-22T16:27:06.604Z,42.88
2024-01-22T16:30:17.497Z,41.16
2024-01-22T16:33:12.178Z,40.35
2024-01-22T16:36:13.161Z,40.47
2024-01-22T16:39:08.423Z,39.97
2024-01-22T16:42:08.527Z,41.79
2024-01-22T16:45:10.433Z,41.03
2024-01-22T16:48:22.553Z,43.31
2024-01-22T16:51:19.884Z,39.97
2024-01-22T16:54:18.263Z,40.95
2024-01-22T16:57:07.790Z,39.30
2024-01-22T16:59:54.542Z,41.05
2024-01-22T17:02:42.185Z,41.56
2024-01-22T17:05:31.964Z,40.31
2024-01-22T17:08:20.361Z,42.75
2024-01-22T17:11:09.712Z,43.65
2024-01-22T17:13:59.244Z,40.55
2024-01-22T17:16:46.594Z,41.34
2024-01-22T17:19:34.509Z,39.39
2024-01-22T17:22:22.386Z,38.87
2024-01-22T17:25:11.592Z,38.80
2024-01-22T17:27:59.906Z,39.35
2024-01-22T17:30:48.983Z,39.33
2024-01-22T17:33:38.320Z,39.68
2024-01-22T17:36:25.875Z,38.86
2024-01-22T17:39:13.175Z,39.53
2024-01-22T17:42:01.316Z,40.59
2024-01-22T17:44:49.048Z,39.53
2024-01-22T17:47:38.355Z,40.08
2024-01-22T17:50:25.566Z,39.84
2024-01-22T17:53:12.901Z,40.21
2024-01-22T17:55:59.611Z,41.58
2024-01-22T17:58:46.601Z,43.24
2024-01-22T18:01:33.387Z,43.65
2024-01-22T18:04:21.785Z,41.30
2024-01-22T18:07:09.526Z,41.68
2024-01-22T18:09:56.239Z,45.47
2024-01-22T18:12:43.391Z,43.29
2024-01-22T18:15:30.161Z,41.65
2024-01-22T18:18:17.219Z,41.06
2024-01-22T18:21:06.138Z,40.66
2024-01-22T18:23:52.844Z,42.40
2024-01-22T18:26:39.645Z,43.04
2024-01-22T18:29:29.484Z,43.18
2024-01-22T18:32:16.210Z,41.87
2024-01-22T18:35:03.430Z,41.68
2024-01-22T18:37:52.386Z,42.01
2024-01-22T18:40:39.530Z,43.04
2024-01-22T18:43:27.035Z,41.76
2024-01-22T18:46:19.670Z,42.60
2024-01-22T18:49:09.521Z,40.66
2024-01-22T18:51:56.335Z,41.06
2024-01-22T18:54:44.610Z,39.05
2024-01-22T18:57:31.301Z,41.60
2024-01-22T19:00:19.290Z,41.75
2024-01-22T19:03:06.080Z,41.60
2024-01-22T19:05:52.761Z,39.76
2024-01-22T19:08:41.228Z,40.66
2024-01-22T19:11:30.722Z,40.92
2024-01-22T19:14:18.093Z,40.46
2024-01-22T19:17:06.749Z,40.90
2024-01-22T19:19:53.514Z,40.47
2024-01-22T19:22:41.293Z,40.69
2024-01-22T19:25:28.486Z,39.77
2024-01-22T19:28:16.934Z,39.30
2024-01-22T19:31:08.696Z,39.05
2024-01-22T19:34:01.349Z,41.35
2024-01-22T19:36:50.392Z,38.53
2024-01-22T19:39:37.481Z,38.56
2024-01-22T19:42:27.176Z,39.43
2024-01-22T19:45:15.722Z,39.59
2024-01-22T19:48:03.645Z,38.85
2024-01-22T19:51:00.282Z,38.67
2024-01-22T19:53:47.907Z,40.34
2024-01-22T19:56:42.643Z,39.21
2024-01-22T19:59:32.983Z,38.94
2024-01-22T20:02:21.492Z,37.68
2024-01-22T20:05:09.005Z,38.98
2024-01-22T20:07:56.812Z,38.33
2024-01-22T20:10:46.177Z,39.85
2024-01-22T20:13:34.650Z,38.47
2024-01-22T20:16:21.583Z,38.84
2024-01-22T20:19:10.175Z,40.97
2024-01-22T20:21:56.996Z,40.35
2024-01-22T20:24:43.628Z,39.21
2024-01-22T20:27:30.439Z,37.58
2024-01-22T20:30:17.518Z,40.18
2024-01-22T20:33:04.409Z,40.14
2024-01-22T20:35:53.567Z,38.64
2024-01-22T20:38:40.811Z,38.39
2024-01-22T20:41:29.784Z,37.58
2024-01-22T20:44:16.498Z,37.76
2024-01-22T20:47:03.552Z,37.87
2024-01-22T20:49:50.402Z,38.50
2024-01-22T20:52:39.786Z,37.09
2024-01-22T20:55:28.174Z,36.48
2024-01-22T20:58:15.499Z,36.73
2024-01-22T21:01:07.781Z,38.08
2024-01-22T21:03:54.945Z,36.25
2024-01-22T21:06:43.247Z,38.70
2024-01-22T21:09:31.312Z,37.09
2024-01-22T21:12:18.227Z,36.56
2024-01-22T21:15:06.016Z,36.40
2024-01-22T21:17:53.090Z,37.80
2024-01-22T21:20:39.986Z,37.53
2024-01-22T21:23:27.094Z,37.46
2024-01-22T21:26:18.027Z,38.99
2024-01-22T21:29:06.533Z,37.92
2024-01-22T21:31:53.603Z,37.83
2024-01-22T21:34:40.802Z,36.16
2024-01-22T21:37:27.502Z,37.28
2024-01-22T21:40:14.678Z,38.29
2024-01-22T21:43:02.721Z,38.16
2024-01-22T21:45:49.490Z,38.65
2024-01-22T21:48:36.486Z,37.58
2024-01-22T21:51:23.279Z,36.43
2024-01-22T21:54:14.291Z,36.16
2024-01-22T21:57:02.526Z,36.84
2024-01-22T21:59:51.753Z,38.60
2024-01-22T22:02:39.819Z,37.01
2024-01-22T22:05:27.281Z,37.77
2024-01-22T22:08:14.095Z,38.00
2024-01-22T22:11:00.866Z,37.42
2024-01-22T22:13:47.892Z,37.90
2024-01-22T22:16:36.369Z,37.58
2024-01-22T22:19:23.388Z,38.17
2024-01-22T22:22:15.215Z,39.22
2024-01-22T22:25:02.247Z,37.73
2024-01-22T22:27:53.193Z,38.11
2024-01-22T22:30:40.226Z,36.58
2024-01-22T22:33:28.770Z,38.58
2024-01-22T22:36:17.077Z,37.88
2024-01-22T22:39:03.712Z,37.71
2024-01-22T22:41:50.570Z,37.14
2024-01-22T22:44:37.462Z,38.32
2024-01-22T22:47:24.343Z,39.53
2024-01-22T22:50:12.724Z,37.43
2024-01-22T22:52:59.472Z,38.05
2024-01-22T22:55:46.570Z,37.82
2024-01-22T22:58:33.528Z,38.02
2024-01-22T23:01:20.094Z,39.18
2024-01-22T23:04:07.210Z,38.91
2024-01-22T23:06:55.216Z,40.73
2024-01-22T23:09:42.179Z,39.02
2024-01-22T23:12:29.155Z,37.24
2024-01-22T23:15:16.205Z,37.67
2024-01-22T23:18:02.929Z,37.82
2024-01-22T23:20:49.645Z,37.34
2024-01-22T23:23:47.505Z,39.81
2024-01-22T23:26:35.396Z,37.91
2024-01-22T23:29:22.382Z,39.11
2024-01-22T23:32:10.841Z,37.12
2024-01-22T23:34:57.681Z,37.06
2024-01-22T23:37:49.646Z,37.84
2024-01-22T23:40:38.096Z,38.57
2024-01-22T23:43:24.640Z,38.23
2024-01-22T23:46:12.798Z,37.18
2024-01-22T23:48:59.497Z,37.92
2024-01-22T23:51:46.194Z,37.93
2024-01-22T23:54:33.073Z,36.41
2024-01-22T23:57:21.299Z,37.48
